Time;durP1;ratioP1;P1;durP2;ratioP2;P2;SDS_P1;SDS_P2;PMS_P1;PMS_P2;Temp;Humidity;BMP_temperature;BMP_pressure;BME280_temperature;BME280_humidity;BME280_pressure;Samples;Min_cycle;Max_cycle;Signal;HPM_P1;HPM_P2
2023/05/29 00:02:19;;;;;;;29.40;20.08;;;21.00;97.90;;;;;;5092938;28;20047;-84
2023/05/29 00:05:23;;;;;;;29.80;19.92;;;20.90;97.90;;;;;;5092680;28;20051;-85
2023/05/29 00:08:27;;;;;;;31.27;19.50;;;20.90;97.90;;;;;;5092412;28;20051;-84
2023/05/29 00:11:31;;;;;;;26.92;20.00;;;20.80;98.10;;;;;;5080327;28;20380;-84
2023/05/29 00:14:35;;;;;;;31.05;21.75;;;20.70;98.10;;;;;;5092727;28;20047;-85
2023/05/29 00:17:40;;;;;;;37.47;20.92;;;20.60;98.50;;;;;;5092393;28;20051;-85
2023/05/29 00:20:44;;;;;;;36.60;19.90;;;20.50;98.70;;;;;;5092769;28;20043;-84
2023/05/29 00:23:48;;;;;;;29.45;19.58;;;20.60;98.80;;;;;;5092306;28;20494;-85
2023/05/29 00:26:52;;;;;;;25.08;18.63;;;20.60;98.70;;;;;;5092414;28;20047;-86
2023/05/29 00:29:56;;;;;;;26.40;17.55;;;20.60;98.50;;;;;;5092374;28;20043;-85
2023/05/29 00:33:00;;;;;;;24.80;17.23;;;20.40;98.50;;;;;;5092582;28;20039;-84
2023/05/29 00:36:07;;;;;;;20.23;14.98;;;20.30;99.10;;;;;;5079800;28;20051;-84
2023/05/29 00:39:12;;;;;;;26.00;16.40;;;20.30;99.10;;;;;;5068196;28;20039;-84
2023/05/29 00:42:15;;;;;;;20.85;14.07;;;20.40;98.80;;;;;;5091848;28;20051;-84
2023/05/29 00:45:19;;;;;;;22.25;14.65;;;20.40;98.60;;;;;;5068028;28;20051;-84
2023/05/29 00:48:25;;;;;;;23.83;14.57;;;20.50;98.50;;;;;;5079499;28;20042;-84
2023/05/29 00:51:31;;;;;;;20.00;15.30;;;20.50;98.50;;;;;;5091940;28;20081;-85
2023/05/29 00:54:36;;;;;;;21.75;14.60;;;20.40;98.40;;;;;;5068028;28;20039;-84
2023/05/29 00:57:40;;;;;;;20.73;14.98;;;20.30;98.50;;;;;;5079033;28;20499;-84
2023/05/29 01:00:44;;;;;;;19.25;14.00;;;20.30;98.60;;;;;;5079377;28;20395;-84
2023/05/29 01:03:49;;;;;;;17.77;13.70;;;20.40;98.30;;;;;;5079149;28;20046;-85
2023/05/29 01:06:53;;;;;;;25.45;13.27;;;20.30;98.20;;;;;;5091289;28;20067;-86
2023/05/29 01:09:58;;;;;;;18.85;14.35;;;20.20;98.30;;;;;;5091504;28;20043;-84
2023/05/29 01:13:23;;;;;;;20.42;13.77;;;20.10;98.60;;;;;;5080793;28;20075;-83
2023/05/29 01:17:08;;;;;;;21.10;13.43;;;20.20;98.60;;;;;;5093261;28;20043;-84
2023/05/29 01:20:35;;;;;;;21.48;13.85;;;20.20;98.40;;;;;;5081552;28;20522;-86
2023/05/29 01:24:02;;;;;;;20.50;13.02;;;20.30;98.30;;;;;;5081360;28;20565;-84
2023/05/29 01:27:10;;;;;;;21.98;13.77;;;20.30;98.30;;;;;;5093314;28;20294;-83
2023/05/29 01:30:34;;;;;;;20.88;14.05;;;20.30;98.40;;;;;;5083353;28;20059;-84
2023/05/29 01:33:41;;;;;;;20.38;13.45;;;20.20;98.30;;;;;;5080747;28;20039;-85
2023/05/29 01:36:46;;;;;;;21.02;13.65;;;20.20;98.60;;;;;;5081419;28;20051;-84
2023/05/29 01:39:50;;;;;;;18.10;13.43;;;20.10;98.40;;;;;;5080953;28;20047;-83
2023/05/29 01:42:55;;;;;;;18.33;13.45;;;20.10;98.50;;;;;;5092847;28;20048;-85
2023/05/29 01:46:00;;;;;;;17.25;13.75;;;20.10;98.40;;;;;;5079882;28;20051;-84
2023/05/29 01:49:05;;;;;;;20.05;13.55;;;20.10;98.40;;;;;;5080239;28;20047;-85
2023/05/29 01:52:10;;;;;;;21.98;13.80;;;20.10;98.30;;;;;;5092293;28;20399;-85
2023/05/29 01:55:14;;;;;;;23.98;13.38;;;20.10;98.40;;;;;;5080552;28;20523;-85
2023/05/29 01:58:21;;;;;;;19.52;13.60;;;20.10;98.40;;;;;;5092945;28;20047;-84
2023/05/29 02:01:26;;;;;;;18.65;13.40;;;20.00;98.40;;;;;;5079973;28;20043;-84
2023/05/29 02:04:30;;;;;;;22.02;14.15;;;20.00;98.30;;;;;;5092586;28;20110;-83
2023/05/29 02:07:36;;;;;;;20.83;13.75;;;19.90;98.10;;;;;;5092166;28;20083;-84
2023/05/29 02:10:41;;;;;;;20.58;14.30;;;19.90;98.30;;;;;;5080219;28;20395;-83
2023/05/29 02:13:44;;;;;;;19.23;14.07;;;19.90;98.30;;;;;;5079340;28;20039;-85
2023/05/29 02:16:49;;;;;;;18.65;14.65;;;20.00;98.30;;;;;;5080221;28;20051;-83
2023/05/29 02:19:54;;;;;;;21.30;15.05;;;19.90;98.40;;;;;;5068636;28;20047;-84
2023/05/29 02:22:58;;;;;;;24.80;14.35;;;19.80;98.70;;;;;;5092546;28;20499;-85
2023/05/29 02:26:02;;;;;;;21.17;13.90;;;19.90;98.70;;;;;;5091978;28;20051;-84
2023/05/29 02:29:06;;;;;;;20.75;14.80;;;19.80;98.50;;;;;;5080433;28;20403;-83
2023/05/29 02:32:10;;;;;;;27.50;14.80;;;19.70;98.80;;;;;;5079883;28;20047;-85
2023/05/29 02:35:15;;;;;;;22.17;14.15;;;19.60;98.80;;;;;;5092624;28;20047;-85
2023/05/29 02:38:19;;;;;;;24.40;14.38;;;19.60;99.10;;;;;;5092466;28;20036;-85
2023/05/29 02:41:23;;;;;;;18.35;14.60;;;19.60;99.00;;;;;;5092430;28;20051;-85
2023/05/29 02:44:28;;;;;;;22.50;15.25;;;19.60;98.90;;;;;;5079979;28;20047;-85
2023/05/29 02:47:32;;;;;;;21.80;14.18;;;19.60;99.00;;;;;;5080487;28;20047;-84
2023/05/29 02:50:36;;;;;;;24.08;14.48;;;19.50;99.00;;;;;;5071607;28;20387;-84
2023/05/29 02:53:40;;;;;;;22.02;14.65;;;19.50;99.20;;;;;;5095663;28;20411;-84
2023/05/29 02:56:44;;;;;;;18.95;13.90;;;19.50;99.30;;;;;;5082710;28;20051;-85
2023/05/29 02:59:49;;;;;;;27.50;15.00;;;19.50;99.20;;;;;;5082671;28;20043;-84
2023/05/29 03:02:52;;;;;;;19.08;14.07;;;19.60;99.20;;;;;;5083163;28;20511;-84
2023/05/29 03:05:56;;;;;;;18.85;14.15;;;19.50;99.20;;;;;;5070893;28;20055;-84
2023/05/29 03:09:01;;;;;;;19.95;14.30;;;19.40;99.30;;;;;;5095037;28;20044;-84
2023/05/29 03:12:05;;;;;;;40.10;15.15;;;19.30;99.50;;;;;;5071214;28;20396;-85
2023/05/29 03:15:10;;;;;;;21.58;14.05;;;19.30;99.70;;;;;;5071158;28;20396;-84
2023/05/29 03:18:15;;;;;;;18.42;13.73;;;19.30;99.60;;;;;;5083110;28;20043;-84
2023/05/29 03:21:19;;;;;;;25.60;14.38;;;19.30;99.60;;;;;;5096285;28;20055;-84
2023/05/29 03:24:23;;;;;;;23.48;15.48;;;19.30;99.70;;;;;;5084715;28;20047;-84
2023/05/29 03:27:29;;;;;;;33.00;14.60;;;19.30;99.90;;;;;;5096901;28;20059;-85
2023/05/29 03:30:40;;;;;;;18.15;14.60;;;19.30;99.80;;;;;;5084573;28;20051;-85
2023/05/29 03:33:45;;;;;;;23.90;15.38;;;19.30;99.80;;;;;;5085337;28;20043;-86
2023/05/29 03:37:01;;;;;;;22.73;15.07;;;19.30;99.70;;;;;;5097981;28;20408;-84
2023/05/29 03:40:07;;;;;;;19.85;14.43;;;19.30;99.70;;;;;;5086407;28;20051;-84
2023/05/29 03:43:12;;;;;;;17.92;13.75;;;19.30;99.80;;;;;;5086271;28;20043;-85
2023/05/29 03:46:16;;;;;;;20.15;13.75;;;19.30;99.70;;;;;;5084818;28;20059;-84
2023/05/29 03:49:20;;;;;;;20.45;13.88;;;19.20;99.80;;;;;;5086113;28;20062;-85
2023/05/29 03:52:24;;;;;;;22.55;14.15;;;19.20;99.70;;;;;;5098766;28;20082;-84
2023/05/29 03:55:28;;;;;;;20.48;13.48;;;19.30;99.70;;;;;;5086663;28;20055;-84
2023/05/29 03:58:32;;;;;;;21.92;12.93;;;19.40;99.50;;;;;;5073252;28;20043;-83
2023/05/29 04:01:37;;;;;;;20.40;12.93;;;19.40;99.40;;;;;;5087596;28;20043;-85
2023/05/29 04:04:41;;;;;;;17.50;12.40;;;19.50;99.10;;;;;;5088178;28;20043;-83
2023/05/29 04:07:46;;;;;;;17.48;12.90;;;19.50;98.60;;;;;;5087457;28;20059;-83
2023/05/29 04:10:53;;;;;;;15.55;12.52;;;19.40;98.70;;;;;;5089325;28;20293;-85
2023/05/29 04:13:58;;;;;;;19.13;11.50;;;19.30;98.40;;;;;;5088113;28;20043;-84
2023/05/29 04:17:04;;;;;;;12.93;11.15;;;19.30;98.80;;;;;;5098999;28;20051;-85
2023/05/29 04:20:09;;;;;;;18.52;9.93;;;19.40;98.20;;;;;;5100228;28;20046;-84
2023/05/29 04:23:17;;;;;;;18.27;11.65;;;19.50;98.00;;;;;;5088736;28;20482;-84
2023/05/29 04:26:25;;;;;;;17.80;11.27;;;19.60;97.70;;;;;;5090066;28;20051;-84
2023/05/29 04:29:30;;;;;;;14.48;10.88;;;19.60;97.70;;;;;;5089158;28;20051;-83
2023/05/29 04:32:34;;;;;;;15.75;11.38;;;19.60;97.80;;;;;;5087839;28;20055;-83
2023/05/29 04:35:42;;;;;;;14.18;11.57;;;19.70;97.80;;;;;;5089844;28;20039;-85
2023/05/29 04:38:47;;;;;;;15.32;10.27;;;19.90;97.70;;;;;;5088391;28;20035;-84
2023/05/29 04:41:51;;;;;;;17.13;11.07;;;20.10;97.40;;;;;;5089291;28;20039;-86
2023/05/29 04:45:00;;;;;;;18.35;11.48;;;20.20;96.80;;;;;;5076769;28;20194;-85
2023/05/29 04:48:05;;;;;;;18.77;11.18;;;19.90;97.30;;;;;;5099788;28;20051;-85
2023/05/29 04:51:12;;;;;;;17.75;11.55;;;20.10;97.80;;;;;;5102501;28;20095;-85
2023/05/29 04:54:16;;;;;;;22.80;12.73;;;20.10;97.40;;;;;;5087311;28;20043;-86
2023/05/29 04:57:22;;;;;;;27.10;12.25;;;20.10;97.40;;;;;;5100114;28;20043;-86
2023/05/29 05:00:26;;;;;;;18.63;10.88;;;20.20;97.70;;;;;;5089558;28;20046;-84
2023/05/29 05:03:31;;;;;;;21.52;12.85;;;20.50;97.60;;;;;;5075827;28;20047;-84
2023/05/29 05:06:35;;;;;;;22.48;12.75;;;20.90;96.80;;;;;;5088798;28;20055;-84
2023/05/29 05:09:39;;;;;;;17.15;11.73;;;21.10;96.30;;;;;;5101570;28;20047;-84
2023/05/29 05:12:45;;;;;;;17.70;11.38;;;21.30;96.20;;;;;;5090124;28;20403;-86
2023/05/29 05:15:52;;;;;;;21.85;11.15;;;21.40;95.40;;;;;;5089228;28;20047;-84
2023/05/29 05:18:56;;;;;;;22.20;11.38;;;21.60;95.70;;;;;;5090740;28;20039;-85
2023/05/29 05:22:01;;;;;;;16.98;11.23;;;21.80;95.10;;;;;;5089289;28;20058;-86
2023/05/29 05:25:06;;;;;;;18.48;13.68;;;22.00;94.90;;;;;;5091388;28;20044;-85
2023/05/29 05:28:12;;;;;;;21.08;11.40;;;22.40;94.70;;;;;;5104692;28;20059;-87
2023/05/29 05:31:17;;;;;;;17.75;11.05;;;22.70;94.20;;;;;;5091300;28;20039;-87
2023/05/29 05:34:23;;;;;;;23.92;11.07;;;22.90;93.30;;;;;;5082711;28;20400;-73
2023/05/29 05:37:27;;;;;;;23.98;10.45;;;23.00;93.00;;;;;;5089371;28;20035;-73
2023/05/29 05:40:33;;;;;;;13.90;9.98;;;23.20;92.70;;;;;;5055386;28;20051;-75
2023/05/29 05:43:45;;;;;;;18.23;10.40;;;23.30;92.50;;;;;;5067145;28;20063;-73
2023/05/29 05:46:52;;;;;;;16.23;10.90;;;23.50;92.60;;;;;;5078326;28;20059;-74
2023/05/29 05:49:57;;;;;;;17.45;10.40;;;23.50;92.10;;;;;;5078727;28;20062;-74
2023/05/29 05:53:02;;;;;;;15.63;11.02;;;23.80;92.20;;;;;;5078497;28;20055;-73
2023/05/29 05:56:06;;;;;;;17.63;10.32;;;23.80;91.80;;;;;;5078376;28;20039;-72
2023/05/29 05:59:10;;;;;;;22.95;10.77;;;23.90;91.80;;;;;;5078325;28;20047;-72
2023/05/29 06:02:14;;;;;;;28.83;12.70;;;24.10;91.90;;;;;;5078673;28;20426;-72
2023/05/29 06:05:19;;;;;;;23.30;12.48;;;24.50;91.70;;;;;;5078940;28;20059;-74
2023/05/29 06:08:24;;;;;;;17.52;12.65;;;24.70;91.60;;;;;;5078113;28;20055;-72
2023/05/29 06:11:31;;;;;;;23.42;12.68;;;24.80;91.60;;;;;;5078792;28;20043;-72
2023/05/29 06:14:36;;;;;;;17.67;11.40;;;25.00;91.40;;;;;;5078484;28;20427;-71
2023/05/29 06:17:40;;;;;;;22.77;11.38;;;25.10;91.10;;;;;;5091564;28;20047;-74
2023/05/29 06:20:44;;;;;;;13.25;10.50;;;25.30;90.90;;;;;;5090818;28;20129;-72
2023/05/29 06:23:50;;;;;;;20.30;10.35;;;25.50;90.50;;;;;;5081665;28;20521;-72
2023/05/29 06:26:55;;;;;;;16.33;9.93;;;25.80;90.10;;;;;;5081909;28;20055;-72
2023/05/29 06:29:59;;;;;;;13.38;9.13;;;25.90;89.20;;;;;;5082784;28;20415;-79
2023/05/29 06:33:03;;;;;;;13.25;10.02;;;26.00;88.30;;;;;;5095552;28;20059;-76
2023/05/29 06:36:09;;;;;;;14.57;9.82;;;26.20;87.50;;;;;;5095522;28;20499;-75
2023/05/29 06:39:14;;;;;;;17.55;10.25;;;26.30;87.20;;;;;;5082936;28;20047;-71
2023/05/29 06:42:18;;;;;;;17.77;9.85;;;26.40;87.20;;;;;;5081859;28;20043;-72
2023/05/29 06:45:22;;;;;;;16.27;10.18;;;26.40;86.80;;;;;;5081603;28;20107;-70
2023/05/29 06:48:26;;;;;;;16.08;9.15;;;26.40;86.50;;;;;;5081712;28;20047;-73
2023/05/29 06:51:32;;;;;;;18.98;9.73;;;26.70;87.20;;;;;;5094178;28;20035;-74
2023/05/29 06:55:01;;;;;;;17.75;8.65;;;26.90;86.20;;;;;;5081388;28;20039;-76
2023/05/29 06:58:05;;;;;;;18.00;9.93;;;27.10;85.50;;;;;;5081566;28;20043;-72
2023/05/29 07:01:10;;;;;;;16.85;10.50;;;27.40;85.40;;;;;;5081187;28;20043;-72
2023/05/29 07:04:38;;;;;;;15.00;9.80;;;27.50;84.90;;;;;;5075754;28;20051;-71
2023/05/29 07:07:42;;;;;;;13.70;10.32;;;27.50;85.00;;;;;;5081130;28;20075;-72
2023/05/29 07:10:51;;;;;;;19.52;10.85;;;27.60;83.50;;;;;;5081600;28;20115;-72
2023/05/29 07:13:57;;;;;;;20.98;10.13;;;27.70;83.80;;;;;;5081371;28;20106;-72
2023/05/29 07:17:03;;;;;;;25.48;13.45;;;27.80;84.20;;;;;;5081007;28;20043;-72
2023/05/29 07:20:08;;;;;;;18.67;11.98;;;28.00;83.70;;;;;;5093606;28;20051;-71
2023/05/29 07:23:13;;;;;;;23.15;11.85;;;28.20;82.00;;;;;;5080947;28;20145;-71
2023/05/29 07:26:17;;;;;;;25.17;11.77;;;28.30;82.80;;;;;;5080778;28;20055;-70
2023/05/29 07:29:22;;;;;;;32.25;11.40;;;28.30;82.30;;;;;;5081075;28;20391;-67
2023/05/29 07:32:27;;;;;;;19.05;10.40;;;28.20;82.70;;;;;;5081156;28;20055;-72
2023/05/29 07:35:33;;;;;;;22.75;9.95;;;28.40;82.30;;;;;;5079855;28;20058;-73
2023/05/29 07:38:38;;;;;;;15.02;8.15;;;28.60;81.90;;;;;;5080941;28;20043;-70
2023/05/29 07:41:43;;;;;;;16.58;8.90;;;28.80;80.90;;;;;;5069341;28;20039;-70
2023/05/29 07:44:47;;;;;;;12.95;7.70;;;28.90;79.90;;;;;;5080371;28;20051;-70
2023/05/29 07:47:52;;;;;;;16.75;8.05;;;28.70;79.90;;;;;;5080521;28;20063;-71
2023/05/29 07:50:56;;;;;;;14.75;7.53;;;28.90;79.10;;;;;;5080619;28;20043;-71
2023/05/29 07:54:02;;;;;;;10.15;7.32;;;29.00;78.70;;;;;;5092203;28;20043;-69
2023/05/29 07:57:09;;;;;;;7.60;6.65;;;29.20;77.30;;;;;;5069042;28;20474;-71
2023/05/29 08:00:16;;;;;;;16.63;7.55;;;29.40;76.40;;;;;;5068522;28;20506;-69
2023/05/29 08:03:23;;;;;;;13.55;6.57;;;29.50;74.90;;;;;;5092772;28;20043;-70
2023/05/29 08:06:56;;;;;;;14.32;7.43;;;29.60;75.50;;;;;;5079756;28;20063;-70
2023/05/29 08:10:00;;;;;;;10.75;7.43;;;29.70;75.10;;;;;;5092877;28;20062;-71
2023/05/29 08:13:04;;;;;;;9.70;7.03;;;29.60;74.50;;;;;;5080090;28;20070;-71
2023/05/29 08:16:14;;;;;;;13.43;7.88;;;29.50;75.40;;;;;;5067167;28;20051;-70
2023/05/29 08:19:17;;;;;;;16.30;6.65;;;29.60;74.40;;;;;;5091311;28;20042;-69
2023/05/29 08:22:29;;;;;;;11.32;6.88;;;29.60;74.90;;;;;;5091736;28;20404;-69
2023/05/29 08:25:33;;;;;;;7.03;5.70;;;29.80;74.60;;;;;;5091354;28;20054;-69
2023/05/29 08:28:37;;;;;;;9.90;6.25;;;29.90;73.10;;;;;;5092166;28;20380;-70
2023/05/29 08:31:41;;;;;;;9.48;6.55;;;29.90;70.40;;;;;;5092017;28;20487;-70
2023/05/29 08:34:45;;;;;;;16.05;10.05;;;29.80;70.80;;;;;;5091830;28;20051;-69
2023/05/29 08:37:49;;;;;;;28.45;11.95;;;29.90;69.90;;;;;;5092186;28;20051;-70
2023/05/29 08:40:56;;;;;;;11.30;6.65;;;29.90;70.60;;;;;;5091971;28;20039;-69
2023/05/29 08:44:05;;;;;;;11.35;7.05;;;30.00;69.70;;;;;;5091894;28;20202;-70
2023/05/29 08:47:15;;;;;;;16.02;6.10;;;30.00;69.80;;;;;;5091987;28;20051;-71
2023/05/29 08:50:21;;;;;;;10.15;6.32;;;30.00;68.50;;;;;;5091795;28;20039;-68
2023/05/29 08:53:26;;;;;;;12.63;6.50;;;29.80;68.20;;;;;;5091559;28;20392;-71
2023/05/29 08:56:31;;;;;;;11.82;5.97;;;29.50;68.80;;;;;;5091631;28;20039;-70
2023/05/29 08:59:39;;;;;;;10.65;6.63;;;29.70;69.70;;;;;;5079211;28;20071;-70
2023/05/29 09:02:45;;;;;;;14.38;6.43;;;29.90;70.50;;;;;;5091635;28;20047;-70
2023/05/29 09:05:49;;;;;;;9.85;6.00;;;30.10;69.20;;;;;;5091552;28;20051;-70
2023/05/29 09:08:54;;;;;;;9.23;6.03;;;30.10;67.90;;;;;;5091507;28;20051;-71
2023/05/29 09:11:58;;;;;;;9.45;6.20;;;29.90;67.80;;;;;;5091285;28;20043;-70
2023/05/29 09:15:03;;;;;;;7.55;5.78;;;29.80;68.10;;;;;;5091342;28;20047;-69
2023/05/29 09:18:09;;;;;;;7.80;5.07;;;29.80;69.30;;;;;;5091546;28;20236;-70
2023/05/29 09:21:27;;;;;;;13.50;5.72;;;29.80;69.60;;;;;;5090559;28;20392;-70
2023/05/29 09:24:39;;;;;;;7.32;5.63;;;29.90;68.80;;;;;;5091394;28;20051;-71
2023/05/29 09:27:43;;;;;;;6.47;5.13;;;29.70;67.70;;;;;;5091007;28;20055;-70
2023/05/29 09:30:48;;;;;;;7.30;4.97;;;29.80;68.00;;;;;;5091452;28;20046;-71
2023/05/29 09:34:10;;;;;;;9.93;5.82;;;30.00;67.50;;;;;;5091004;28;20047;-69
2023/05/29 09:37:17;;;;;;;7.88;5.75;;;30.00;66.80;;;;;;5091373;28;20549;-71
2023/05/29 09:40:21;;;;;;;8.90;5.60;;;30.00;67.00;;;;;;5089919;28;20510;-71
2023/05/29 09:43:26;;;;;;;5.65;4.78;;;29.90;66.80;;;;;;5091364;28;20051;-71
2023/05/29 09:46:34;;;;;;;5.30;4.80;;;30.10;67.10;;;;;;5089558;28;20386;-71
2023/05/29 09:49:41;;;;;;;8.02;5.35;;;30.20;65.90;;;;;;5091512;28;20043;-70
2023/05/29 09:52:46;;;;;;;6.32;4.90;;;30.30;67.00;;;;;;5091111;28;20145;-70
2023/05/29 09:55:56;;;;;;;10.18;5.07;;;30.50;66.10;;;;;;5091031;28;20074;-70
2023/05/29 09:59:01;;;;;;;12.80;7.90;;;30.70;67.00;;;;;;5083930;28;20067;-71
2023/05/29 10:02:11;;;;;;;12.55;8.20;;;30.80;72.20;;;;;;5095114;28;20043;-71
2023/05/29 10:05:15;;;;;;;11.57;7.75;;;30.80;73.10;;;;;;5082446;28;20035;-69
2023/05/29 10:08:20;;;;;;;19.02;7.97;;;30.80;72.90;;;;;;5095203;28;20075;-70
2023/05/29 10:11:27;;;;;;;9.50;7.65;;;30.80;73.70;;;;;;5094978;28;20050;-70
2023/05/29 10:14:33;;;;;;;12.80;8.10;;;30.80;74.30;;;;;;5094870;28;20388;-71
2023/05/29 10:17:39;;;;;;;10.90;8.13;;;30.70;74.30;;;;;;5095181;28;20067;-71
2023/05/29 10:20:45;;;;;;;11.38;6.85;;;30.70;73.90;;;;;;5094810;28;20043;-70
2023/05/29 10:23:50;;;;;;;17.02;8.55;;;30.60;74.30;;;;;;5094893;28;20043;-71
2023/05/29 10:26:56;;;;;;;14.30;8.18;;;30.50;74.80;;;;;;5095421;28;20059;-71
2023/05/29 10:30:06;;;;;;;13.82;7.75;;;30.50;73.90;;;;;;5082069;28;20047;-71
2023/05/29 10:33:40;;;;;;;13.82;7.90;;;30.40;73.60;;;;;;5094266;28;20039;-71
2023/05/29 10:37:10;;;;;;;9.32;7.20;;;30.40;75.10;;;;;;5094461;28;20039;-70
2023/05/29 10:40:16;;;;;;;12.73;7.00;;;30.40;75.50;;;;;;5072372;28;20050;-71
2023/05/29 10:43:34;;;;;;;10.65;6.72;;;30.20;75.40;;;;;;5093572;28;20491;-69
2023/05/29 10:46:49;;;;;;;10.43;7.25;;;30.10;74.60;;;;;;5092796;28;20047;-69
2023/05/29 10:50:00;;;;;;;9.90;6.72;;;29.90;75.20;;;;;;5092147;28;20154;-70
2023/05/29 10:53:30;;;;;;;17.83;8.25;;;29.90;75.90;;;;;;5093769;28;20051;-71
2023/05/29 10:56:34;;;;;;;9.40;6.60;;;29.90;76.50;;;;;;5093718;28;20074;-70
2023/05/29 10:59:38;;;;;;;11.30;6.03;;;29.90;76.30;;;;;;5093046;28;20043;-69
2023/05/29 11:02:42;;;;;;;7.32;6.15;;;29.90;76.20;;;;;;5093392;28;20043;-71
2023/05/29 11:06:10;;;;;;;8.82;6.70;;;29.80;74.20;;;;;;5079204;28;20590;-70
2023/05/29 11:09:37;;;;;;;8.50;6.32;;;29.70;74.70;;;;;;5080160;28;20407;-69
2023/05/29 11:12:58;;;;;;;8.65;5.82;;;29.70;75.80;;;;;;5093453;28;20041;-68
2023/05/29 11:16:29;;;;;;;9.85;6.45;;;29.70;74.30;;;;;;5093542;28;20499;-69
2023/05/29 11:19:33;;;;;;;12.27;6.60;;;29.70;74.50;;;;;;5081268;28;20395;-69
2023/05/29 11:22:59;;;;;;;10.23;6.80;;;29.70;74.60;;;;;;5093331;28;20039;-71
2023/05/29 11:26:05;;;;;;;9.77;7.10;;;29.70;75.40;;;;;;5093241;28;20051;-70
2023/05/29 11:29:11;;;;;;;9.05;6.60;;;29.60;75.00;;;;;;5093365;28;20055;-69
2023/05/29 11:32:17;;;;;;;12.27;6.55;;;29.60;75.50;;;;;;5081330;28;20039;-70
2023/05/29 11:35:22;;;;;;;15.00;7.57;;;29.60;75.10;;;;;;5080890;28;20058;-70
2023/05/29 11:38:27;;;;;;;10.10;6.63;;;29.60;74.80;;;;;;5092969;28;20043;-69
2023/05/29 11:41:31;;;;;;;9.50;7.15;;;29.50;74.50;;;;;;5093064;28;20055;-69
2023/05/29 11:44:35;;;;;;;11.48;7.40;;;29.20;73.50;;;;;;5092877;28;20391;-70
2023/05/29 11:47:55;;;;;;;9.52;6.55;;;29.10;75.50;;;;;;5093139;28;20067;-69
2023/05/29 11:51:02;;;;;;;14.88;7.95;;;28.90;76.10;;;;;;5080364;28;20047;-69
2023/05/29 11:54:06;;;;;;;12.68;7.70;;;28.70;75.90;;;;;;5092880;28;20043;-71
2023/05/29 11:57:10;;;;;;;14.35;8.95;;;28.50;77.60;;;;;;5093089;28;20039;-70
2023/05/29 12:00:16;;;;;;;12.00;7.45;;;28.30;78.10;;;;;;5092820;28;20051;-71
2023/05/29 12:03:20;;;;;;;12.10;6.72;;;28.10;78.80;;;;;;5092451;28;20384;-69
2023/05/29 12:06:37;;;;;;;14.85;8.43;;;28.00;79.80;;;;;;5078676;28;20047;-71
2023/05/29 12:09:41;;;;;;;11.25;6.82;;;28.00;80.30;;;;;;5092309;28;20396;-70
2023/05/29 12:12:53;;;;;;;15.15;8.25;;;27.90;80.00;;;;;;5092731;28;20506;-69
2023/05/29 12:16:04;;;;;;;16.40;7.90;;;27.90;80.20;;;;;;5080029;28;20047;-69
2023/05/29 12:19:08;;;;;;;13.30;8.40;;;27.90;80.20;;;;;;5092508;28;20047;-69
2023/05/29 12:22:12;;;;;;;13.15;7.70;;;27.90;79.70;;;;;;5092261;28;20047;-70
2023/05/29 12:25:19;;;;;;;10.18;7.38;;;27.80;79.90;;;;;;5092213;28;20460;-70
2023/05/29 12:28:25;;;;;;;12.85;7.80;;;27.80;79.90;;;;;;5079836;28;20055;-70
2023/05/29 12:31:30;;;;;;;10.45;7.22;;;27.80;80.00;;;;;;5092430;28;20039;-70
2023/05/29 12:34:37;;;;;;;11.80;6.80;;;27.90;81.10;;;;;;5079905;28;20046;-70
2023/05/29 12:37:46;;;;;;;11.30;7.55;;;28.00;81.20;;;;;;5092170;28;20047;-70
2023/05/29 12:40:51;;;;;;;14.55;7.45;;;28.10;80.40;;;;;;5079482;28;20451;-70
2023/05/29 12:43:57;;;;;;;11.77;7.07;;;28.20;80.10;;;;;;5092003;28;20395;-71
2023/05/29 12:47:01;;;;;;;12.15;6.97;;;28.30;79.90;;;;;;5092012;28;20051;-73
2023/05/29 12:50:22;;;;;;;8.40;7.07;;;28.40;79.80;;;;;;5091850;28;20047;-71
2023/05/29 12:53:29;;;;;;;12.68;8.02;;;28.40;80.40;;;;;;5091721;28;20047;-69
2023/05/29 12:56:34;;;;;;;9.93;7.85;;;28.50;80.10;;;;;;5091688;28;20546;-69
2023/05/29 12:59:38;;;;;;;11.65;7.65;;;28.50;79.90;;;;;;5091920;28;20656;-71
2023/05/29 13:02:42;;;;;;;8.02;6.57;;;28.50;79.30;;;;;;5091678;28;20043;-71
2023/05/29 13:05:46;;;;;;;7.78;6.60;;;28.60;79.20;;;;;;5091662;28;20035;-71
2023/05/29 13:08:50;;;;;;;8.27;6.90;;;28.60;78.60;;;;;;5091823;28;20047;-69
2023/05/29 13:11:55;;;;;;;11.85;7.28;;;28.60;77.60;;;;;;5091883;28;20039;-70
2023/05/29 13:14:59;;;;;;;8.25;7.00;;;28.70;77.70;;;;;;5078841;28;20043;-71
2023/05/29 13:18:03;;;;;;;21.50;8.27;;;28.80;78.50;;;;;;5091806;28;20051;-72
2023/05/29 13:21:06;;;;;;;12.23;7.63;;;28.80;78.20;;;;;;5091343;28;20047;-72
2023/05/29 13:24:10;;;;;;;14.88;8.38;;;28.70;78.50;;;;;;5091293;28;20043;-69
2023/05/29 13:27:15;;;;;;;7.55;6.45;;;28.70;78.80;;;;;;5090900;28;20114;-70
2023/05/29 13:30:20;;;;;;;15.18;7.93;;;28.70;78.50;;;;;;5091467;28;20039;-70
2023/05/29 13:33:24;;;;;;;9.02;7.50;;;28.70;78.80;;;;;;5091084;28;20110;-69
2023/05/29 13:36:28;;;;;;;14.52;7.03;;;28.80;78.60;;;;;;5091167;28;20043;-71
2023/05/29 13:39:32;;;;;;;11.93;8.02;;;28.80;78.10;;;;;;5091364;28;20209;-71
2023/05/29 13:42:37;;;;;;;18.55;6.65;;;28.80;78.50;;;;;;5091511;28;20043;-72
2023/05/29 13:45:41;;;;;;;11.15;5.82;;;28.70;76.70;;;;;;5091411;28;20043;-71
2023/05/29 13:48:45;;;;;;;10.57;5.63;;;28.50;76.40;;;;;;5090876;28;20531;-71
2023/05/29 13:51:52;;;;;;;10.85;4.72;;;28.20;76.80;;;;;;5078786;28;20043;-70
2023/05/29 13:54:59;;;;;;;11.95;5.40;;;27.80;78.60;;;;;;5090872;28;20047;-70
2023/05/29 13:58:03;;;;;;;10.77;5.45;;;27.60;77.50;;;;;;5090978;28;20047;-70
2023/05/29 14:01:07;;;;;;;11.68;6.50;;;27.30;77.60;;;;;;5078372;28;20534;-71
2023/05/29 14:04:11;;;;;;;11.65;5.47;;;27.10;78.90;;;;;;5090879;28;20487;-70
2023/05/29 14:07:16;;;;;;;13.27;6.10;;;26.80;80.40;;;;;;5090893;28;20059;-72
2023/05/29 14:10:20;;;;;;;14.13;5.70;;;26.60;81.40;;;;;;5090672;28;20059;-70
2023/05/29 14:13:24;;;;;;;18.42;4.90;;;26.40;81.10;;;;;;5078578;28;20502;-71
2023/05/29 14:16:28;;;;;;;7.50;4.20;;;26.00;76.80;;;;;;5079581;28;20412;-75
2023/05/29 14:19:32;;;;;;;14.25;4.75;;;25.70;76.60;;;;;;5090640;28;20161;-70
2023/05/29 14:22:37;;;;;;;9.32;4.72;;;25.30;77.20;;;;;;5090710;28;20066;-72
2023/05/29 14:25:41;;;;;;;12.20;5.80;;;24.80;81.10;;;;;;5092417;28;20039;-77
2023/05/29 14:28:46;;;;;;;26.52;8.15;;;24.20;85.40;;;;;;5091132;28;20051;-71
2023/05/29 14:31:50;;;;;;;20.17;6.68;;;23.70;91.30;;;;;;5092790;28;20047;-75
2023/05/29 14:34:57;;;;;;;26.48;7.97;;;23.30;92.10;;;;;;5093909;28;20043;-70
2023/05/29 14:38:03;;;;;;;15.65;6.05;;;22.90;92.80;;;;;;5093343;28;20071;-71
2023/05/29 14:41:08;;;;;;;12.90;6.70;;;22.20;93.20;;;;;;5094269;28;20043;-72
2023/05/29 14:44:14;;;;;;;13.70;6.85;;;21.90;93.20;;;;;;5069668;28;20272;-71
2023/05/29 14:47:19;;;;;;;13.95;6.78;;;21.80;93.20;;;;;;5096264;28;20043;-70
2023/05/29 14:50:23;;;;;;;14.35;6.82;;;21.80;93.70;;;;;;5083527;28;20047;-72
2023/05/29 14:53:27;;;;;;;11.57;7.30;;;21.80;94.00;;;;;;5095357;28;20043;-71
2023/05/29 14:56:32;;;;;;;12.27;6.75;;;21.90;94.10;;;;;;5096219;28;20494;-71
2023/05/29 14:59:36;;;;;;;11.02;6.13;;;21.90;94.70;;;;;;5094853;28;20047;-70
2023/05/29 15:02:39;;;;;;;15.45;6.60;;;21.80;93.90;;;;;;5094440;28;20051;-72
2023/05/29 15:05:43;;;;;;;12.00;5.95;;;21.80;94.50;;;;;;5094371;28;20043;-73
2023/05/29 15:08:50;;;;;;;17.17;7.38;;;21.90;94.70;;;;;;5094164;28;20066;-70
2023/05/29 15:11:54;;;;;;;10.80;6.63;;;21.90;94.50;;;;;;5094019;28;20047;-71
2023/05/29 15:14:58;;;;;;;13.88;7.38;;;21.90;94.90;;;;;;5094933;28;20047;-72
2023/05/29 15:18:02;;;;;;;13.18;8.10;;;22.00;95.60;;;;;;5093452;28;20134;-71
2023/05/29 15:21:06;;;;;;;14.50;8.18;;;22.00;96.10;;;;;;5093263;28;20067;-72
2023/05/29 15:24:11;;;;;;;13.50;7.88;;;21.90;96.30;;;;;;5093308;28;20063;-72
2023/05/29 15:27:15;;;;;;;16.80;7.47;;;21.70;94.80;;;;;;5093522;28;20051;-71
2023/05/29 15:30:20;;;;;;;13.77;7.22;;;21.20;96.30;;;;;;5093872;28;20055;-69
2023/05/29 15:33:23;;;;;;;12.38;7.60;;;21.20;97.10;;;;;;5094265;28;20039;-73
2023/05/29 15:36:28;;;;;;;13.98;7.10;;;21.00;97.50;;;;;;5082864;28;20047;-71
2023/05/29 15:39:33;;;;;;;11.25;6.78;;;21.20;98.20;;;;;;5093669;28;20046;-72
2023/05/29 15:42:38;;;;;;;8.50;5.53;;;21.40;97.30;;;;;;5093984;28;20046;-74
2023/05/29 15:45:43;;;;;;;12.05;6.53;;;21.50;97.10;;;;;;5093667;28;20047;-72
2023/05/29 15:48:47;;;;;;;9.32;6.53;;;21.60;96.90;;;;;;5092773;28;20059;-70
2023/05/29 15:51:51;;;;;;;10.18;6.50;;;21.60;97.20;;;;;;5092669;28;20043;-69
2023/05/29 15:54:55;;;;;;;13.75;6.47;;;21.40;97.60;;;;;;5091706;28;20045;-72